Time;durP1;ratioP1;P1;durP2;ratioP2;P2;SDS_P1;SDS_P2;PMS_P1;PMS_P2;Temp;Humidity;BMP_temperature;BMP_pressure;BME280_temperature;BME280_humidity;BME280_pressure;Samples;Min_cycle;Max_cycle;Signal;HPM_P1;HPM_P2
2021/08/14 00:02:11;;;;;;;5.53;3.87;;;;;;;;;;4452701;32;20220;-56
2021/08/14 00:04:36;;;;;;;7.22;4.35;;;;;;;;;;4458455;32;20224;-56
2021/08/14 00:07:03;;;;;;;10.55;4.82;;;;;;;;;;4461766;32;20294;-56
2021/08/14 00:09:28;;;;;;;6.65;3.97;;;;;;;;;;4450348;32;20315;-56
2021/08/14 00:11:54;;;;;;;6.90;4.37;;;;;;;;;;4450411;32;20708;-56
2021/08/14 00:14:19;;;;;;;11.48;4.78;;;;;;;;;;4461516;32;20220;-56
2021/08/14 00:16:45;;;;;;;6.97;4.30;;;;;;;;;;4455865;32;20726;-56
2021/08/14 00:19:11;;;;;;;7.18;4.43;;;;;;;;;;4460402;32;20351;-56
2021/08/14 00:21:36;;;;;;;6.65;4.07;;;;;;;;;;4452611;32;20229;-56
2021/08/14 00:24:02;;;;;;;4.60;3.78;;;;;;;;;;4459930;32;20240;-55
2021/08/14 00:26:28;;;;;;;5.50;3.97;;;;;;;;;;4457916;32;20295;-57
2021/08/14 00:28:53;;;;;;;5.50;4.05;;;;;;;;;;4459091;32;20347;-57
2021/08/14 00:31:19;;;;;;;5.37;4.15;;;;;;;;;;4460465;32;20755;-55
2021/08/14 00:33:45;;;;;;;4.85;3.47;;;;;;;;;;4461998;32;20644;-55
2021/08/14 00:36:10;;;;;;;5.05;4.30;;;;;;;;;;4447882;32;20346;-56
2021/08/14 00:38:36;;;;;;;7.20;4.85;;;;;;;;;;4457694;32;20300;-56
2021/08/14 00:41:02;;;;;;;5.75;4.00;;;;;;;;;;4461700;32;20407;-57
2021/08/14 00:43:28;;;;;;;6.28;4.68;;;;;;;;;;4463710;32;20314;-55
2021/08/14 00:45:53;;;;;;;5.85;4.68;;;;;;;;;;4458058;32;20366;-56
2021/08/14 00:48:21;;;;;;;10.60;4.78;;;;;;;;;;4454668;32;20621;-55
2021/08/14 00:50:46;;;;;;;6.32;3.78;;;;;;;;;;4461569;32;20258;-55
2021/08/14 00:53:12;;;;;;;5.12;4.25;;;;;;;;;;4452146;32;20245;-55
2021/08/14 00:55:40;;;;;;;4.97;4.07;;;;;;;;;;4454939;32;20421;-56
2021/08/14 00:58:06;;;;;;;5.85;4.10;;;;;;;;;;4464686;32;20234;-55
2021/08/14 01:00:31;;;;;;;5.90;4.62;;;;;;;;;;4461390;32;20291;-55
2021/08/14 01:02:57;;;;;;;5.60;3.65;;;;;;;;;;4453399;32;20283;-55
2021/08/14 01:05:23;;;;;;;6.18;4.57;;;;;;;;;;4452105;32;20318;-57
2021/08/14 01:07:50;;;;;;;5.85;3.92;;;;;;;;;;4453477;32;20600;-55
2021/08/14 01:10:16;;;;;;;6.78;4.22;;;;;;;;;;4448056;32;20319;-55
2021/08/14 01:12:41;;;;;;;6.97;4.43;;;;;;;;;;4445670;32;20318;-57
2021/08/14 01:15:07;;;;;;;6.25;4.78;;;;;;;;;;4451498;32;20220;-55
2021/08/14 01:17:36;;;;;;;7.15;4.37;;;;;;;;;;4455833;32;20735;-55
2021/08/14 01:20:05;;;;;;;6.05;3.92;;;;;;;;;;4456501;32;20288;-55
2021/08/14 01:22:31;;;;;;;12.85;9.98;;;;;;;;;;4450037;32;20287;-55
2021/08/14 01:24:56;;;;;;;16.67;12.27;;;;;;;;;;4454018;32;20220;-55
2021/08/14 01:27:21;;;;;;;14.48;7.72;;;;;;;;;;4453674;32;20620;-55
2021/08/14 01:29:47;;;;;;;9.07;5.93;;;;;;;;;;4456431;32;20228;-55
2021/08/14 01:32:12;;;;;;;9.05;5.40;;;;;;;;;;4450228;32;20311;-55
2021/08/14 01:34:41;;;;;;;6.43;3.97;;;;;;;;;;4454461;32;20220;-55
2021/08/14 01:37:08;;;;;;;6.03;4.72;;;;;;;;;;4450737;32;20216;-55
2021/08/14 01:39:34;;;;;;;10.75;4.55;;;;;;;;;;4459061;32;20892;-55
2021/08/14 01:42:04;;;;;;;7.78;4.50;;;;;;;;;;4456595;32;20283;-58
2021/08/14 01:44:31;;;;;;;7.93;4.28;;;;;;;;;;4459365;32;20244;-56
2021/08/14 01:46:58;;;;;;;9.02;4.22;;;;;;;;;;4457461;32;20232;-56
2021/08/14 01:49:23;;;;;;;4.65;4.07;;;;;;;;;;4448149;32;20281;-56
2021/08/14 01:51:49;;;;;;;9.52;4.32;;;;;;;;;;4453940;32;20692;-57
2021/08/14 01:54:16;;;;;;;5.18;3.83;;;;;;;;;;4451754;32;20339;-56
2021/08/14 01:56:42;;;;;;;6.75;4.75;;;;;;;;;;4460864;32;20271;-56
2021/08/14 01:59:07;;;;;;;5.45;4.50;;;;;;;;;;4447841;32;20621;-56
2021/08/14 02:01:33;;;;;;;5.20;4.20;;;;;;;;;;4452973;32;20599;-57
2021/08/14 02:03:59;;;;;;;6.80;4.57;;;;;;;;;;4462769;32;20220;-56
2021/08/14 02:06:26;;;;;;;5.90;4.10;;;;;;;;;;4458729;32;20702;-57
2021/08/14 02:08:52;;;;;;;6.95;4.57;;;;;;;;;;4462619;32;20271;-56
2021/08/14 02:11:24;;;;;;;7.50;5.22;;;;;;;;;;4459389;32;20311;-56
2021/08/14 02:13:51;;;;;;;5.32;4.53;;;;;;;;;;4455481;32;20232;-56
2021/08/14 02:16:18;;;;;;;6.80;4.07;;;;;;;;;;4463700;32;20269;-57
2021/08/14 02:18:43;;;;;;;6.60;4.60;;;;;;;;;;4450239;32;20483;-56
2021/08/14 02:21:09;;;;;;;6.65;4.60;;;;;;;;;;4459091;32;20671;-55
2021/08/14 02:23:35;;;;;;;7.57;4.20;;;;;;;;;;4453388;32;20224;-56
2021/08/14 02:26:02;;;;;;;8.57;3.83;;;;;;;;;;4454047;32;20367;-57
2021/08/14 02:28:28;;;;;;;6.30;4.75;;;;;;;;;;4459680;32;20794;-56
2021/08/14 02:30:54;;;;;;;7.05;4.70;;;;;;;;;;4458110;32;20800;-56
2021/08/14 02:33:20;;;;;;;10.95;5.15;;;;;;;;;;4457489;32;20363;-56
2021/08/14 02:35:45;;;;;;;10.30;4.10;;;;;;;;;;4453869;32;21123;-55
2021/08/14 02:38:11;;;;;;;6.12;3.87;;;;;;;;;;4453460;32;20624;-56
2021/08/14 02:40:36;;;;;;;5.37;4.80;;;;;;;;;;4459959;32;20275;-56
2021/08/14 02:43:03;;;;;;;8.25;3.95;;;;;;;;;;4449743;32;20294;-56
2021/08/14 02:45:29;;;;;;;5.12;4.00;;;;;;;;;;4458159;32;20216;-58
2021/08/14 02:47:56;;;;;;;6.78;3.83;;;;;;;;;;4462674;32;20301;-56
2021/08/14 02:50:22;;;;;;;6.72;4.45;;;;;;;;;;4463028;32;20711;-56
2021/08/14 02:52:48;;;;;;;7.07;4.82;;;;;;;;;;4450400;32;20224;-56
2021/08/14 02:55:13;;;;;;;9.85;4.15;;;;;;;;;;4457471;32;20282;-56
2021/08/14 02:57:39;;;;;;;5.62;4.28;;;;;;;;;;4463543;32;20349;-56
2021/08/14 03:00:05;;;;;;;5.28;4.15;;;;;;;;;;4462556;32;20736;-56
2021/08/14 03:02:31;;;;;;;7.62;4.95;;;;;;;;;;4451310;32;20303;-57
2021/08/14 03:04:56;;;;;;;6.85;4.53;;;;;;;;;;4456133;32;20216;-56
2021/08/14 03:07:21;;;;;;;6.72;4.78;;;;;;;;;;4451791;32;20343;-55
2021/08/14 03:09:47;;;;;;;4.47;3.85;;;;;;;;;;4457130;32;20281;-54
2021/08/14 03:12:12;;;;;;;7.45;4.40;;;;;;;;;;4457279;32;20262;-54
2021/08/14 03:14:38;;;;;;;5.57;4.50;;;;;;;;;;4457811;32;20637;-55
2021/08/14 03:17:05;;;;;;;5.97;4.07;;;;;;;;;;4458097;32;20295;-56
2021/08/14 03:19:31;;;;;;;7.50;4.57;;;;;;;;;;4456529;32;20339;-56
2021/08/14 03:21:56;;;;;;;6.00;4.57;;;;;;;;;;4454448;32;20303;-55
2021/08/14 03:24:23;;;;;;;8.32;4.60;;;;;;;;;;4454396;32;20688;-55
2021/08/14 03:26:49;;;;;;;5.12;3.97;;;;;;;;;;4460931;32;20263;-56
2021/08/14 03:29:14;;;;;;;7.00;4.22;;;;;;;;;;4462331;32;20321;-56
2021/08/14 03:31:39;;;;;;;7.55;4.62;;;;;;;;;;4455348;32;20326;-55
2021/08/14 03:34:05;;;;;;;6.82;4.12;;;;;;;;;;4454637;32;20252;-55
2021/08/14 03:36:31;;;;;;;4.80;4.00;;;;;;;;;;4458149;32;20307;-55
2021/08/14 03:38:56;;;;;;;10.57;4.35;;;;;;;;;;4447405;32;20643;-55
2021/08/14 03:41:22;;;;;;;4.87;4.37;;;;;;;;;;4450916;32;20306;-55
2021/08/14 03:43:47;;;;;;;4.90;3.97;;;;;;;;;;4456560;32;20660;-54
2021/08/14 03:46:13;;;;;;;6.35;4.47;;;;;;;;;;4456454;32;20338;-54
2021/08/14 03:48:38;;;;;;;7.05;4.22;;;;;;;;;;4456004;32;20588;-54
2021/08/14 03:51:04;;;;;;;7.50;4.80;;;;;;;;;;4452159;32;20363;-54
2021/08/14 03:53:30;;;;;;;7.28;4.72;;;;;;;;;;4465763;32;20721;-54
2021/08/14 03:55:55;;;;;;;6.10;4.12;;;;;;;;;;4460004;32;20417;-56
2021/08/14 03:58:21;;;;;;;7.87;4.62;;;;;;;;;;4465378;32;20266;-54
2021/08/14 04:00:46;;;;;;;8.60;4.32;;;;;;;;;;4462480;32;20347;-55
2021/08/14 04:03:11;;;;;;;7.35;4.68;;;;;;;;;;4449360;32;20244;-55
2021/08/14 04:05:37;;;;;;;9.60;4.95;;;;;;;;;;4455559;32;20291;-55
2021/08/14 04:08:02;;;;;;;6.22;4.47;;;;;;;;;;4459069;32;20294;-55
2021/08/14 04:10:28;;;;;;;10.23;4.80;;;;;;;;;;4462124;32;20453;-57
2021/08/14 04:12:53;;;;;;;7.32;4.47;;;;;;;;;;4451111;32;20323;-55
2021/08/14 04:15:19;;;;;;;7.87;5.40;;;;;;;;;;4459100;32;20311;-57
2021/08/14 04:17:44;;;;;;;9.07;5.20;;;;;;;;;;4458784;32;20632;-55
2021/08/14 04:20:11;;;;;;;7.72;4.37;;;;;;;;;;4449207;32;20319;-55
2021/08/14 04:22:36;;;;;;;7.82;4.78;;;;;;;;;;4454784;32;20291;-56
2021/08/14 04:25:04;;;;;;;6.00;4.95;;;;;;;;;;4452723;32;20262;-55
2021/08/14 04:27:30;;;;;;;6.50;5.32;;;;;;;;;;4454944;32;20696;-56
2021/08/14 04:29:55;;;;;;;12.23;5.47;;;;;;;;;;4465109;32;20242;-55
2021/08/14 04:32:21;;;;;;;15.50;5.75;;;;;;;;;;4457059;32;20425;-55
2021/08/14 04:34:46;;;;;;;10.48;5.60;;;;;;;;;;4458007;32;20241;-55
2021/08/14 04:37:13;;;;;;;7.87;5.18;;;;;;;;;;4464943;32;20421;-55
2021/08/14 04:39:39;;;;;;;6.80;4.70;;;;;;;;;;4464781;32;20247;-55
2021/08/14 04:42:05;;;;;;;9.55;6.22;;;;;;;;;;4456476;32;20317;-57
2021/08/14 04:44:30;;;;;;;8.80;5.20;;;;;;;;;;4452151;32;20323;-55
2021/08/14 04:46:56;;;;;;;7.43;5.32;;;;;;;;;;4463784;32;20303;-55
2021/08/14 04:49:21;;;;;;;8.40;5.65;;;;;;;;;;4464244;32;20247;-55
2021/08/14 04:51:47;;;;;;;7.22;5.57;;;;;;;;;;4465045;32;20339;-55
2021/08/14 04:54:12;;;;;;;7.35;5.43;;;;;;;;;;4458247;32;20221;-55
2021/08/14 04:56:38;;;;;;;10.35;5.40;;;;;;;;;;4452100;32;20291;-55
2021/08/14 04:59:04;;;;;;;6.90;5.22;;;;;;;;;;4463026;32;20410;-55
2021/08/14 05:01:29;;;;;;;10.85;5.12;;;;;;;;;;4454840;32;20307;-55
2021/08/14 05:03:55;;;;;;;10.27;5.12;;;;;;;;;;4458374;32;20240;-56
2021/08/14 05:06:20;;;;;;;8.57;4.82;;;;;;;;;;4453560;32;20295;-56
2021/08/14 05:08:46;;;;;;;8.68;5.10;;;;;;;;;;4462045;32;20223;-56
2021/08/14 05:11:11;;;;;;;9.15;5.65;;;;;;;;;;4460964;32;20279;-56
2021/08/14 05:13:37;;;;;;;10.90;4.97;;;;;;;;;;4454995;32;20660;-56
2021/08/14 05:16:02;;;;;;;10.60;5.35;;;;;;;;;;4459422;32;20573;-55
2021/08/14 05:18:28;;;;;;;8.80;5.75;;;;;;;;;;4459711;32;20299;-56
2021/08/14 05:20:53;;;;;;;7.45;4.82;;;;;;;;;;4461228;32;20262;-56
2021/08/14 05:23:19;;;;;;;7.18;5.37;;;;;;;;;;4460235;32;20262;-56
2021/08/14 05:25:44;;;;;;;7.45;5.82;;;;;;;;;;4457036;32;20321;-56
2021/08/14 05:28:10;;;;;;;6.70;5.43;;;;;;;;;;4450374;32;20652;-56
2021/08/14 05:30:35;;;;;;;5.68;4.80;;;;;;;;;;4460443;32;20643;-55
2021/08/14 05:33:01;;;;;;;7.68;5.62;;;;;;;;;;4453659;32;20785;-55
2021/08/14 05:35:26;;;;;;;7.40;5.72;;;;;;;;;;4459196;32;20321;-57
2021/08/14 05:37:52;;;;;;;15.32;5.85;;;;;;;;;;4464463;32;20272;-56
2021/08/14 05:40:17;;;;;;;7.85;5.05;;;;;;;;;;4463473;32;20276;-56
2021/08/14 05:42:42;;;;;;;7.95;5.37;;;;;;;;;;4464274;32;20263;-56
2021/08/14 05:45:09;;;;;;;8.13;5.53;;;;;;;;;;4454376;32;20252;-55
2021/08/14 05:47:34;;;;;;;6.85;5.30;;;;;;;;;;4454277;32;20317;-56
2021/08/14 05:49:59;;;;;;;7.47;5.93;;;;;;;;;;4456591;32;20648;-55
2021/08/14 05:52:25;;;;;;;9.10;5.60;;;;;;;;;;4459898;32;20670;-55
2021/08/14 05:54:51;;;;;;;10.07;6.20;;;;;;;;;;4453132;32;20759;-55
2021/08/14 05:57:16;;;;;;;19.80;5.87;;;;;;;;;;4461067;32;20325;-55
2021/08/14 05:59:42;;;;;;;11.93;5.45;;;;;;;;;;4448540;32;20344;-55
2021/08/14 06:02:07;;;;;;;12.75;5.95;;;;;;;;;;4458869;32;20720;-55
2021/08/14 06:04:33;;;;;;;17.33;5.35;;;;;;;;;;4460136;32;20295;-56
2021/08/14 06:06:58;;;;;;;6.30;4.80;;;;;;;;;;4464213;32;20730;-57
2021/08/14 06:09:24;;;;;;;8.23;5.55;;;;;;;;;;4459788;32;20236;-56
2021/08/14 06:11:49;;;;;;;7.87;5.05;;;;;;;;;;4456672;32;20352;-55
2021/08/14 06:14:15;;;;;;;9.05;6.10;;;;;;;;;;4456446;32;20240;-56
2021/08/14 06:16:40;;;;;;;12.02;5.62;;;;;;;;;;4461306;32;20301;-56
2021/08/14 06:19:06;;;;;;;6.22;4.93;;;;;;;;;;4462109;32;20213;-55
2021/08/14 06:21:32;;;;;;;13.13;6.75;;;;;;;;;;4452989;32;20242;-55
2021/08/14 06:23:58;;;;;;;10.13;6.55;;;;;;;;;;4463664;32;20258;-55
2021/08/14 06:26:24;;;;;;;11.43;6.28;;;;;;;;;;4459430;32;20773;-62
2021/08/14 06:28:49;;;;;;;9.43;6.05;;;;;;;;;;4463667;32;20220;-55
2021/08/14 06:31:16;;;;;;;8.32;5.43;;;;;;;;;;4460074;32;20292;-56
2021/08/14 06:33:42;;;;;;;9.98;5.95;;;;;;;;;;4456502;32;20737;-55
2021/08/14 06:36:08;;;;;;;6.82;5.37;;;;;;;;;;4453690;32;20287;-60
2021/08/14 06:38:35;;;;;;;7.97;6.03;;;;;;;;;;4458744;32;20432;-54
2021/08/14 06:41:00;;;;;;;11.02;6.12;;;;;;;;;;4459898;32;20422;-54
2021/08/14 06:43:26;;;;;;;8.60;5.25;;;;;;;;;;4453007;32;20639;-55
2021/08/14 06:45:51;;;;;;;7.57;5.43;;;;;;;;;;4458023;32;20725;-55
2021/08/14 06:48:17;;;;;;;9.13;5.03;;;;;;;;;;4453100;32;20669;-55
2021/08/14 06:50:42;;;;;;;8.10;6.03;;;;;;;;;;4448741;32;20652;-55
2021/08/14 06:53:07;;;;;;;7.18;4.75;;;;;;;;;;4450495;32;20682;-55
2021/08/14 06:55:33;;;;;;;7.45;5.37;;;;;;;;;;4453565;32;20305;-55
2021/08/14 06:57:58;;;;;;;6.93;5.30;;;;;;;;;;4455580;32;20275;-55
2021/08/14 07:00:24;;;;;;;8.63;5.03;;;;;;;;;;4462227;32;20282;-55
2021/08/14 07:02:49;;;;;;;8.52;5.20;;;;;;;;;;4450074;32;20644;-55
2021/08/14 07:05:15;;;;;;;7.60;5.55;;;;;;;;;;4458795;32;20835;-55
2021/08/14 07:07:40;;;;;;;6.50;4.80;;;;;;;;;;4454622;32;20315;-57
2021/08/14 07:10:07;;;;;;;7.12;5.20;;;;;;;;;;4455050;32;20704;-55
2021/08/14 07:12:32;;;;;;;7.50;4.90;;;;;;;;;;4458920;32;20276;-55
2021/08/14 07:14:59;;;;;;;8.65;6.20;;;;;;;;;;4459323;32;20260;-55
2021/08/14 07:17:25;;;;;;;6.85;5.22;;;;;;;;;;4452840;32;20265;-55
2021/08/14 07:19:51;;;;;;;7.35;4.95;;;;;;;;;;4456781;32;20337;-55
2021/08/14 07:22:16;;;;;;;6.40;4.78;;;;;;;;;;4456401;32;20637;-54
2021/08/14 07:24:41;;;;;;;13.07;5.47;;;;;;;;;;4457620;32;20282;-55
2021/08/14 07:27:07;;;;;;;7.07;5.00;;;;;;;;;;4460400;32;20800;-55
2021/08/14 07:29:32;;;;;;;8.35;6.00;;;;;;;;;;4448687;32;20633;-55
2021/08/14 07:31:58;;;;;;;9.52;5.90;;;;;;;;;;4453810;32;20536;-56
2021/08/14 07:34:23;;;;;;;5.97;5.12;;;;;;;;;;4458073;32;20312;-56
2021/08/14 07:36:49;;;;;;;8.35;4.78;;;;;;;;;;4449830;32;20351;-56
2021/08/14 07:39:15;;;;;;;6.68;4.50;;;;;;;;;;4448949;32;20721;-56
2021/08/14 07:41:41;;;;;;;8.55;5.82;;;;;;;;;;4463177;32;20287;-58
2021/08/14 07:44:06;;;;;;;6.35;4.97;;;;;;;;;;4461834;32;20612;-57
2021/08/14 07:46:32;;;;;;;10.50;6.57;;;;;;;;;;4450876;32;20275;-57
2021/08/14 07:48:57;;;;;;;7.10;6.32;;;;;;;;;;4461564;32;20254;-57
2021/08/14 07:51:23;;;;;;;6.15;5.50;;;;;;;;;;4461460;32;20286;-59
2021/08/14 07:53:48;;;;;;;7.40;5.30;;;;;;;;;;4455927;32;20228;-56
2021/08/14 07:56:14;;;;;;;5.90;4.85;;;;;;;;;;4452745;32;20336;-57
2021/08/14 07:58:39;;;;;;;9.13;5.53;;;;;;;;;;4459813;32;20592;-57
2021/08/14 08:01:05;;;;;;;11.63;5.35;;;;;;;;;;4458122;32;20290;-57
2021/08/14 08:03:30;;;;;;;5.65;4.87;;;;;;;;;;4451841;32;20403;-57
2021/08/14 08:05:56;;;;;;;7.25;5.18;;;;;;;;;;4452993;32;20276;-57
2021/08/14 08:08:21;;;;;;;7.97;5.57;;;;;;;;;;4448154;32;20603;-57
2021/08/14 08:10:47;;;;;;;6.25;4.93;;;;;;;;;;4459687;32;20275;-57
2021/08/14 08:13:13;;;;;;;8.82;5.55;;;;;;;;;;4450200;32;20658;-57
2021/08/14 08:15:38;;;;;;;9.60;5.10;;;;;;;;;;4454449;32;20287;-56
2021/08/14 08:18:04;;;;;;;5.78;4.10;;;;;;;;;;4455253;32;20334;-57
2021/08/14 08:20:29;;;;;;;7.87;5.20;;;;;;;;;;4451833;32;20635;-57
2021/08/14 08:22:55;;;;;;;5.18;4.68;;;;;;;;;;4455372;32;20282;-57
2021/08/14 08:25:21;;;;;;;7.50;5.05;;;;;;;;;;4456980;32;20666;-58
2021/08/14 08:27:48;;;;;;;5.05;4.43;;;;;;;;;;4456397;32;20314;-59
2021/08/14 08:30:15;;;;;;;5.57;4.28;;;;;;;;;;4461940;32;20235;-57
2021/08/14 08:32:41;;;;;;;5.25;4.75;;;;;;;;;;4459690;32;20307;-57
2021/08/14 08:35:07;;;;;;;6.20;4.95;;;;;;;;;;4455368;32;20601;-57
2021/08/14 08:37:33;;;;;;;5.75;4.87;;;;;;;;;;4455570;32;20291;-57
2021/08/14 08:39:59;;;;;;;9.00;4.72;;;;;;;;;;4465252;32;20430;-57
2021/08/14 08:42:25;;;;;;;5.87;5.00;;;;;;;;;;4454619;32;20355;-57
2021/08/14 08:44:50;;;;;;;6.50;5.28;;;;;;;;;;4458096;32;20401;-57
2021/08/14 08:47:19;;;;;;;8.95;5.53;;;;;;;;;;4461558;32;20306;-58
2021/08/14 08:49:52;;;;;;;6.72;4.97;;;;;;;;;;4451369;32;20251;-57
2021/08/14 08:52:19;;;;;;;7.50;4.47;;;;;;;;;;4460401;32;20219;-57
2021/08/14 08:54:46;;;;;;;6.65;4.07;;;;;;;;;;4459259;32;20710;-57
2021/08/14 08:57:12;;;;;;;7.80;5.03;;;;;;;;;;4464813;32;20609;-57
2021/08/14 08:59:37;;;;;;;6.78;4.80;;;;;;;;;;4464260;32;20284;-57
2021/08/14 09:02:03;;;;;;;6.18;4.93;;;;;;;;;;4456484;32;20597;-57
2021/08/14 09:04:31;;;;;;;8.95;4.30;;;;;;;;;;4451775;32;20258;-57
2021/08/14 09:06:59;;;;;;;8.85;5.43;;;;;;;;;;4451933;32;20209;-57
2021/08/14 09:09:30;;;;;;;5.22;4.40;;;;;;;;;;4463968;32;20251;-57
2021/08/14 09:12:00;;;;;;;4.93;4.12;;;;;;;;;;4457087;32;20223;-57
2021/08/14 09:14:27;;;;;;;9.35;5.00;;;;;;;;;;4451799;32;20705;-57
2021/08/14 09:17:06;;;;;;;6.80;5.15;;;;;;;;;;4464893;32;20324;-57
2021/08/14 09:19:32;;;;;;;6.87;4.10;;;;;;;;;;4464016;32;20279;-57
2021/08/14 09:22:11;;;;;;;8.40;4.05;;;;;;;;;;4464163;32;20584;-57
2021/08/14 09:24:37;;;;;;;5.47;3.75;;;;;;;;;;4459997;32;20300;-57
2021/08/14 09:27:04;;;;;;;6.75;4.70;;;;;;;;;;4457657;32;20265;-58
2021/08/14 09:29:32;;;;;;;5.68;4.45;;;;;;;;;;4463787;32;20267;-57
2021/08/14 09:31:59;;;;;;;11.35;5.00;;;;;;;;;;4458974;32;20252;-57
2021/08/14 09:34:26;;;;;;;7.47;4.22;;;;;;;;;;4449959;32;20220;-57
2021/08/14 09:37:04;;;;;;;8.20;3.85;;;;;;;;;;4448820;32;20336;-57
2021/08/14 09:39:32;;;;;;;8.18;3.95;;;;;;;;;;4449889;32;20636;-57
2021/08/14 09:42:08;;;;;;;5.97;3.97;;;;;;;;;;4448850;32;20208;-57
2021/08/14 09:44:37;;;;;;;6.28;4.43;;;;;;;;;;4449408;32;20761;-57
2021/08/14 09:47:11;;;;;;;12.50;5.62;;;;;;;;;;4448390;32;20212;-57
2021/08/14 09:49:55;;;;;;;6.22;3.97;;;;;;;;;;4449853;32;20257;-57
2021/08/14 09:52:23;;;;;;;7.40;4.72;;;;;;;;;;4448730;32;20216;-58
2021/08/14 09:54:49;;;;;;;6.90;4.20;;;;;;;;;;4455303;32;20664;-58
2021/08/14 09:57:19;;;;;;;4.90;4.32;;;;;;;;;;4464066;32;20665;-58
2021/08/14 09:59:46;;;;;;;4.90;3.60;;;;;;;;;;4457902;32;20286;-58
2021/08/14 10:02:28;;;;;;;6.00;3.97;;;;;;;;;;4448599;32;20355;-58
2021/08/14 10:04:56;;;;;;;4.05;3.65;;;;;;;;;;4453219;32;20244;-58
2021/08/14 10:07:21;;;;;;;5.22;3.42;;;;;;;;;;4448623;32;20845;-58
2021/08/14 10:09:48;;;;;;;5.65;4.00;;;;;;;;;;4451602;32;20240;-58
2021/08/14 10:12:16;;;;;;;4.93;3.55;;;;;;;;;;4449253;32;20541;-59
2021/08/14 10:14:44;;;;;;;5.30;3.47;;;;;;;;;;4449458;32;20260;-58
2021/08/14 10:17:10;;;;;;;4.75;4.05;;;;;;;;;;4463900;32;20272;-58
2021/08/14 10:19:37;;;;;;;3.58;3.25;;;;;;;;;;4459239;32;20319;-58
2021/08/14 10:22:04;;;;;;;4.25;3.35;;;;;;;;;;4451790;32;20333;-58
2021/08/14 10:24:39;;;;;;;5.07;3.87;;;;;;;;;;4459731;32;20340;-58
2021/08/14 10:27:14;;;;;;;6.53;3.97;;;;;;;;;;4457532;32;20251;-58
2021/08/14 10:29:49;;;;;;;6.60;4.05;;;;;;;;;;4462715;32;20224;-58
2021/08/14 10:32:30;;;;;;;5.15;3.90;;;;;;;;;;4459296;32;20707;-58
2021/08/14 10:35:14;;;;;;;5.72;3.55;;;;;;;;;;4454950;32;20631;-59
2021/08/14 10:37:47;;;;;;;5.28;3.83;;;;;;;;;;4463610;32;20279;-58
2021/08/14 10:40:14;;;;;;;5.32;3.55;;;;;;;;;;4454759;32;20660;-58
2021/08/14 10:42:57;;;;;;;5.53;3.60;;;;;;;;;;4447612;32;20620;-59
2021/08/14 10:45:33;;;;;;;4.82;3.53;;;;;;;;;;4458136;32;20652;-58
2021/08/14 10:48:04;;;;;;;4.70;3.60;;;;;;;;;;4461961;32;20265;-58
2021/08/14 10:50:32;;;;;;;6.57;3.92;;;;;;;;;;4452455;32;20300;-58
2021/08/14 10:53:09;;;;;;;5.68;4.03;;;;;;;;;;4447781;32;20302;-58
2021/08/14 10:55:35;;;;;;;5.30;3.42;;;;;;;;;;4448565;32;20271;-58
2021/08/14 10:58:15;;;;;;;6.90;4.28;;;;;;;;;;4447346;32;20723;-58
2021/08/14 11:00:41;;;;;;;3.78;3.08;;;;;;;;;;4459364;32;20295;-57
2021/08/14 11:03:08;;;;;;;5.75;3.65;;;;;;;;;;4463062;32;20334;-58
2021/08/14 11:05:35;;;;;;;5.35;3.78;;;;;;;;;;4452258;32;20209;-58
2021/08/14 11:08:02;;;;;;;4.72;3.95;;;;;;;;;;4447321;32;20307;-59
2021/08/14 11:10:32;;;;;;;7.35;4.20;;;;;;;;;;4448694;32;20255;-58
2021/08/14 11:12:57;;;;;;;4.55;3.92;;;;;;;;;;4447828;32;20217;-58
2021/08/14 11:15:25;;;;;;;5.90;3.85;;;;;;;;;;4448508;32;20695;-58
2021/08/14 11:17:52;;;;;;;6.00;3.72;;;;;;;;;;4463745;32;20620;-58
2021/08/14 11:20:20;;;;;;;6.10;4.18;;;;;;;;;;4454187;32;20280;-58
2021/08/14 11:22:47;;;;;;;4.68;3.92;;;;;;;;;;4447285;32;20290;-58
2021/08/14 11:25:33;;;;;;;9.02;4.30;;;;;;;;;;4456933;32;20279;-58
2021/08/14 11:28:04;;;;;;;4.68;3.80;;;;;;;;;;4448287;32;20895;-58
2021/08/14 11:30:37;;;;;;;6.10;3.90;;;;;;;;;;4455331;32;20228;-58
2021/08/14 11:33:07;;;;;;;5.53;4.37;;;;;;;;;;4449376;32;20232;-58
2021/08/14 11:35:35;;;;;;;4.60;3.92;;;;;;;;;;4457634;32;20252;-58
2021/08/14 11:38:06;;;;;;;5.55;3.80;;;;;;;;;;4462300;32;20235;-57
2021/08/14 11:40:43;;;;;;;13.70;4.47;;;;;;;;;;4450052;32;20371;-58
2021/08/14 11:43:13;;;;;;;5.28;4.32;;;;;;;;;;4446996;32;20300;-57
2021/08/14 11:45:41;;;;;;;5.43;3.25;;;;;;;;;;4455518;32;20247;-57
2021/08/14 11:48:09;;;;;;;5.75;4.57;;;;;;;;;;4462235;32;20212;-57
2021/08/14 11:50:35;;;;;;;5.50;4.72;;;;;;;;;;4458576;32;20251;-57
2021/08/14 11:53:02;;;;;;;7.28;4.35;;;;;;;;;;4445403;32;20735;-57
2021/08/14 11:55:28;;;;;;;7.37;5.28;;;;;;;;;;4448069;32;20213;-57
2021/08/14 11:57:53;;;;;;;6.72;5.12;;;;;;;;;;4447134;32;20375;-58
2021/08/14 12:00:28;;;;;;;6.80;4.57;;;;;;;;;;4447728;32;20356;-57
2021/08/14 12:03:08;;;;;;;7.55;5.18;;;;;;;;;;4447408;32;20200;-57
2021/08/14 12:05:35;;;;;;;5.53;4.53;;;;;;;;;;4458381;32;20204;-58
2021/08/14 12:08:01;;;;;;;6.00;4.32;;;;;;;;;;4461583;32;20339;-57
2021/08/14 12:10:27;;;;;;;4.65;4.25;;;;;;;;;;4455993;32;20310;-57
2021/08/14 12:13:18;;;;;;;5.15;3.67;;;;;;;;;;4450011;32;20275;-57
2021/08/14 12:15:46;;;;;;;7.20;4.45;;;;;;;;;;4461430;32;20651;-58
2021/08/14 12:18:12;;;;;;;6.40;4.03;;;;;;;;;;4465635;32;20256;-58
2021/08/14 12:20:40;;;;;;;6.00;4.20;;;;;;;;;;4454487;32;20234;-57
2021/08/14 12:23:23;;;;;;;6.32;3.78;;;;;;;;;;4449480;32;20337;-57
2021/08/14 12:25:53;;;;;;;6.80;4.82;;;;;;;;;;4452068;32;20212;-57
2021/08/14 12:28:24;;;;;;;4.90;4.22;;;;;;;;;;4465727;32;20254;-57
2021/08/14 12:30:50;;;;;;;5.28;4.15;;;;;;;;;;4453139;32;20706;-57
2021/08/14 12:33:32;;;;;;;5.57;4.15;;;;;;;;;;4463405;32;20224;-57
2021/08/14 12:35:59;;;;;;;4.57;3.67;;;;;;;;;;4452164;32;20343;-57
2021/08/14 12:38:25;;;;;;;5.60;3.60;;;;;;;;;;4449911;32;20304;-57
2021/08/14 12:40:51;;;;;;;5.15;3.78;;;;;;;;;;4463283;32;20299;-58
2021/08/14 12:43:21;;;;;;;5.62;3.87;;;;;;;;;;4465021;32;20253;-57
2021/08/14 12:45:46;;;;;;;5.95;3.60;;;;;;;;;;4453658;32;20208;-57
2021/08/14 12:48:12;;;;;;;4.03;3.50;;;;;;;;;;4449656;32;20332;-57
2021/08/14 12:50:41;;;;;;;4.55;3.60;;;;;;;;;;4450679;32;20314;-58
2021/08/14 12:53:08;;;;;;;4.20;3.80;;;;;;;;;;4449214;32;20657;-57
2021/08/14 12:55:45;;;;;;;4.65;3.87;;;;;;;;;;4460561;32;20262;-57
2021/08/14 12:58:16;;;;;;;4.43;3.12;;;;;;;;;;4463451;32;20231;-58
2021/08/14 13:00:46;;;;;;;4.40;3.60;;;;;;;;;;4464049;32;20777;-58
2021/08/14 13:03:12;;;;;;;6.22;4.18;;;;;;;;;;4464677;32;20250;-57
2021/08/14 13:05:37;;;;;;;5.37;3.78;;;;;;;;;;4464537;32;20284;-58
2021/08/14 13:08:04;;;;;;;6.20;3.90;;;;;;;;;;4464905;32;20306;-57
2021/08/14 13:10:32;;;;;;;4.75;4.18;;;;;;;;;;4454588;32;20258;-58
2021/08/14 13:12:59;;;;;;;4.85;3.75;;;;;;;;;;4449053;32;20231;-57
2021/08/14 13:15:26;;;;;;;5.18;4.20;;;;;;;;;;4450538;32;20294;-58
2021/08/14 13:17:53;;;;;;;5.45;4.87;;;;;;;;;;4449516;32;20268;-57
2021/08/14 13:20:20;;;;;;;8.50;4.35;;;;;;;;;;4449057;32;20566;-57
2021/08/14 13:22:46;;;;;;;6.03;4.75;;;;;;;;;;4457104;32;20219;-58
2021/08/14 13:25:13;;;;;;;4.60;4.18;;;;;;;;;;4463992;32;20287;-57
2021/08/14 13:27:40;;;;;;;6.45;4.72;;;;;;;;;;4463384;32;20502;-58
2021/08/14 13:30:19;;;;;;;4.97;4.45;;;;;;;;;;4464085;32;20569;-58
2021/08/14 13:32:45;;;;;;;4.75;4.20;;;;;;;;;;4459358;32;20239;-57
2021/08/14 13:35:12;;;;;;;7.32;4.90;;;;;;;;;;4448523;32;20248;-58
2021/08/14 13:37:38;;;;;;;4.87;4.37;;;;;;;;;;4449406;32;20679;-58
2021/08/14 13:40:06;;;;;;;4.20;3.80;;;;;;;;;;4450111;32;20448;-57
2021/08/14 13:42:32;;;;;;;5.20;4.70;;;;;;;;;;4448948;32;20274;-58
2021/08/14 13:44:58;;;;;;;6.97;4.68;;;;;;;;;;4446336;32;20284;-57
2021/08/14 13:47:24;;;;;;;6.32;4.80;;;;;;;;;;4448925;32;20332;-58
2021/08/14 13:49:51;;;;;;;6.47;4.68;;;;;;;;;;4455856;32;20571;-57
2021/08/14 13:52:17;;;;;;;6.50;4.62;;;;;;;;;;4462874;32;20269;-58
2021/08/14 13:54:43;;;;;;;5.53;4.75;;;;;;;;;;4457758;32;20480;-57
2021/08/14 13:57:08;;;;;;;6.37;4.57;;;;;;;;;;4448833;32;20287;-57
2021/08/14 13:59:34;;;;;;;5.75;4.68;;;;;;;;;;4449974;32;20322;-57
2021/08/14 14:01:59;;;;;;;5.62;4.53;;;;;;;;;;4449005;32;20302;-57
2021/08/14 14:04:24;;;;;;;7.37;4.68;;;;;;;;;;4449519;32;20243;-58
2021/08/14 14:06:50;;;;;;;5.30;4.78;;;;;;;;;;4421971;32;20299;-57
2021/08/14 14:09:15;;;;;;;6.62;4.50;;;;;;;;;;4451703;32;20236;-58
2021/08/14 14:11:41;;;;;;;6.35;5.57;;;;;;;;;;4452375;32;20383;-58
2021/08/14 14:14:06;;;;;;;7.47;5.70;;;;;;;;;;4455015;32;20550;-58
2021/08/14 14:16:32;;;;;;;8.48;5.28;;;;;;;;;;4457815;32;20298;-58
2021/08/14 14:18:57;;;;;;;5.78;5.12;;;;;;;;;;4460928;32;20693;-58
2021/08/14 14:21:23;;;;;;;6.80;4.82;;;;;;;;;;4462359;32;20243;-57
2021/08/14 14:23:49;;;;;;;4.87;4.22;;;;;;;;;;4461763;32;20263;-57
2021/08/14 14:26:14;;;;;;;5.90;5.12;;;;;;;;;;4446682;32;20276;-57
2021/08/14 14:28:40;;;;;;;6.03;5.00;;;;;;;;;;4447772;32;20339;-57
2021/08/14 14:31:06;;;;;;;7.93;5.62;;;;;;;;;;4447367;32;20291;-57
2021/08/14 14:33:32;;;;;;;5.70;5.07;;;;;;;;;;4463747;32;20351;-57
2021/08/14 14:35:57;;;;;;;7.03;5.22;;;;;;;;;;4450280;32;20325;-58
2021/08/14 14:38:23;;;;;;;4.85;4.43;;;;;;;;;;4446668;32;20255;-57
2021/08/14 14:40:48;;;;;;;9.70;5.35;;;;;;;;;;4454765;32;20328;-57